createdAt,value
2022-12-15T00:00:25.715Z,71.43
2022-12-15T00:03:12.828Z,71.15
2022-12-15T00:05:59.911Z,70.68
2022-12-15T00:08:46.900Z,67.18
2022-12-15T00:11:33.811Z,70.93
2022-12-15T00:14:20.776Z,81.35
2022-12-15T00:17:07.703Z,68.43
2022-12-15T00:19:54.847Z,67.55
2022-12-15T00:22:41.840Z,72.25
2022-12-15T00:25:28.882Z,68.05
2022-12-15T00:28:17.235Z,70.90
2022-12-15T00:31:04.287Z,67.53
2022-12-15T00:33:51.268Z,74.07
2022-12-15T00:36:38.263Z,74.85
2022-12-15T00:39:05.469Z,75.05
2022-12-15T00:41:32.713Z,74.38
2022-12-15T00:43:59.726Z,69.00
2022-12-15T00:46:46.810Z,70.65
2022-12-15T00:49:33.883Z,72.85
2022-12-15T00:52:20.823Z,68.43
2022-12-15T00:55:07.778Z,70.15
2022-12-15T00:57:54.985Z,66.47
2022-12-15T01:00:42.778Z,67.18
2022-12-15T01:03:35.667Z,70.35
2022-12-15T01:06:28.393Z,61.53
2022-12-15T01:09:15.783Z,66.55
2022-12-15T01:12:04.146Z,65.68
2022-12-15T01:14:51.430Z,66.88
2022-12-15T01:17:38.617Z,72.70
2022-12-15T01:20:22.411Z,72.68
2022-12-15T01:22:52.986Z,74.05
2022-12-15T01:25:23.169Z,66.50
2022-12-15T01:27:50.722Z,68.50
2022-12-15T01:30:21.529Z,70.90
2022-12-15T01:32:49.247Z,71.00
2022-12-15T01:35:16.614Z,70.13
2022-12-15T01:37:43.936Z,68.38
2022-12-15T01:40:36.959Z,74.70
2022-12-15T01:43:04.122Z,74.97
2022-12-15T01:45:31.386Z,77.65
2022-12-15T01:48:06.121Z,72.97
2022-12-15T01:50:39.883Z,68.32
2022-12-15T01:53:07.302Z,59.33
2022-12-15T01:55:34.659Z,71.38
2022-12-15T01:58:05.454Z,74.80
2022-12-15T02:00:34.507Z,76.82
2022-12-15T02:03:02.730Z,71.53
2022-12-15T02:05:31.825Z,76.13
2022-12-15T02:08:00.554Z,70.10
2022-12-15T02:10:34.531Z,72.68
2022-12-15T02:13:09.251Z,75.57
2022-12-15T02:15:46.914Z,72.30
2022-12-15T02:18:40.443Z,71.22
2022-12-15T02:21:34.605Z,71.43
2022-12-15T02:24:11.092Z,71.93
2022-12-15T02:27:01.573Z,67.95
2022-12-15T02:29:48.607Z,65.13
2022-12-15T02:32:24.568Z,72.25
2022-12-15T02:34:55.881Z,69.13
2022-12-15T02:37:26.448Z,71.53
2022-12-15T02:39:53.519Z,70.03
2022-12-15T02:42:22.172Z,71.88
2022-12-15T02:44:52.442Z,71.10
2022-12-15T02:47:27.965Z,78.65
2022-12-15T02:50:34.918Z,69.20
2022-12-15T02:53:22.058Z,68.10
2022-12-15T02:56:00.827Z,66.85
2022-12-15T02:58:39.576Z,72.80
2022-12-15T03:01:26.403Z,71.65
2022-12-15T03:03:55.799Z,72.72
2022-12-15T03:06:25.763Z,73.88
2022-12-15T03:08:52.917Z,68.10
2022-12-15T03:11:20.036Z,74.35
2022-12-15T03:13:47.160Z,70.05
2022-12-15T03:16:17.268Z,71.85
2022-12-15T03:18:44.456Z,64.18
2022-12-15T03:21:11.736Z,72.32
2022-12-15T03:23:38.879Z,74.63
2022-12-15T03:26:06.768Z,72.05
2022-12-15T03:28:34.440Z,70.72
2022-12-15T03:31:01.662Z,72.20
2022-12-15T03:33:28.847Z,81.68
2022-12-15T03:35:56.725Z,75.90
2022-12-15T03:38:23.762Z,73.18
2022-12-15T03:40:50.972Z,73.80
2022-12-15T03:43:18.089Z,72.90
2022-12-15T03:45:45.223Z,74.78
2022-12-15T03:48:12.318Z,74.35
2022-12-15T03:50:39.827Z,73.03
2022-12-15T03:53:07.395Z,70.97
2022-12-15T03:55:35.371Z,68.75
2022-12-15T03:58:02.915Z,73.20
2022-12-15T04:00:30.264Z,72.70
2022-12-15T04:02:57.533Z,71.60
2022-12-15T04:05:28.583Z,74.93
2022-12-15T04:07:58.036Z,80.00
2022-12-15T04:10:31.893Z,72.75
2022-12-15T04:13:07.424Z,77.28
2022-12-15T04:15:36.113Z,69.35
2022-12-15T04:18:06.318Z,74.78
2022-12-15T04:20:33.572Z,72.95
2022-12-15T04:23:00.842Z,75.38
2022-12-15T04:25:48.251Z,74.80
2022-12-15T04:28:35.276Z,73.65
2022-12-15T04:31:36.756Z,77.13
2022-12-15T04:34:26.426Z,80.13
2022-12-15T04:37:14.452Z,74.32
2022-12-15T04:40:12.060Z,78.70
2022-12-15T04:43:03.407Z,79.68
2022-12-15T04:45:50.568Z,76.28
2022-12-15T04:48:37.702Z,77.75
2022-12-15T04:51:24.696Z,73.88
2022-12-15T04:54:11.764Z,72.93
2022-12-15T04:56:58.720Z,71.90
2022-12-15T04:59:45.759Z,72.03
2022-12-15T05:02:32.906Z,72.80
2022-12-15T05:05:20.013Z,67.10
2022-12-15T05:08:07.162Z,72.88
2022-12-15T05:10:54.117Z,75.43
2022-12-15T05:13:41.150Z,71.25
2022-12-15T05:16:28.178Z,67.43
2022-12-15T05:19:15.120Z,74.20
2022-12-15T05:22:02.239Z,71.90
2022-12-15T05:24:49.199Z,69.40
2022-12-15T05:27:36.163Z,79.15
2022-12-15T05:30:23.294Z,77.93
2022-12-15T05:32:50.537Z,74.93
2022-12-15T05:35:17.842Z,74.90
2022-12-15T05:37:45.236Z,82.45
2022-12-15T05:40:12.610Z,78.75
2022-12-15T05:42:39.656Z,73.47
2022-12-15T05:45:07.246Z,75.88
2022-12-15T05:47:34.293Z,77.07
2022-12-15T05:50:01.348Z,72.38
2022-12-15T05:52:28.698Z,66.15
2022-12-15T05:54:56.158Z,74.78
2022-12-15T05:57:23.417Z,75.65
2022-12-15T05:59:50.532Z,73.00
2022-12-15T06:02:17.769Z,72.75
2022-12-15T06:04:44.924Z,74.13
2022-12-15T06:07:12.115Z,71.85
2022-12-15T06:09:39.555Z,69.05
2022-12-15T06:12:06.992Z,65.80
2022-12-15T06:14:34.165Z,62.67
2022-12-15T06:17:01.438Z,68.45
2022-12-15T06:19:28.629Z,67.82
2022-12-15T06:21:55.707Z,71.95
2022-12-15T06:24:22.965Z,69.95
2022-12-15T06:26:50.079Z,71.85
2022-12-15T06:29:18.380Z,65.13
2022-12-15T06:31:45.675Z,67.97
2022-12-15T06:34:14.646Z,74.07
2022-12-15T06:36:42.125Z,74.90
2022-12-15T06:39:13.278Z,74.35
2022-12-15T06:41:41.440Z,74.85
2022-12-15T06:44:13.102Z,77.82
2022-12-15T06:46:40.237Z,88.72
2022-12-15T06:49:09.117Z,91.90
2022-12-15T06:51:36.732Z,87.60
2022-12-15T06:54:04.078Z,88.68
2022-12-15T06:56:34.869Z,85.28
2022-12-15T06:59:03.892Z,94.22
2022-12-15T07:01:32.033Z,87.40
2022-12-15T07:04:01.715Z,91.28
2022-12-15T07:06:36.553Z,83.40
2022-12-15T07:09:08.650Z,87.65
2022-12-15T07:11:36.121Z,76.57
2022-12-15T07:14:04.034Z,76.03
2022-12-15T07:16:31.394Z,76.22
2022-12-15T07:18:58.607Z,78.22
2022-12-15T07:21:25.888Z,78.65
2022-12-15T07:23:55.263Z,74.90
2022-12-15T07:26:23.980Z,68.00
2022-12-15T07:28:51.611Z,67.45
2022-12-15T07:31:19.066Z,67.40
2022-12-15T07:33:48.472Z,64.18
2022-12-15T07:36:16.104Z,57.47
2022-12-15T07:38:45.663Z,57.45
2022-12-15T07:41:18.790Z,58.17
2022-12-15T07:43:47.346Z,61.33
2022-12-15T07:46:14.588Z,52.08
2022-12-15T07:48:41.684Z,49.95
2022-12-15T07:51:15.561Z,50.72
2022-12-15T07:53:44.975Z,55.97
2022-12-15T07:56:12.034Z,59.90
2022-12-15T07:58:39.382Z,59.55
2022-12-15T08:01:10.480Z,68.20
2022-12-15T08:03:39.440Z,65.80
2022-12-15T08:06:10.450Z,64.82
2022-12-15T08:08:37.844Z,64.60
2022-12-15T08:11:06.492Z,60.58
2022-12-15T08:16:22.145Z,63.67
2022-12-15T08:18:49.809Z,59.47
2022-12-15T08:21:18.136Z,57.80
2022-12-15T08:23:45.806Z,62.25
2022-12-15T08:26:17.046Z,67.68
2022-12-15T08:28:44.823Z,62.00
2022-12-15T08:31:16.815Z,61.20
2022-12-15T08:33:45.056Z,67.60
2022-12-15T08:36:13.940Z,64.32
2022-12-15T08:38:42.983Z,68.00
2022-12-15T08:41:16.226Z,65.43
2022-12-15T08:43:48.455Z,62.88
2022-12-15T08:46:18.471Z,65.43
2022-12-15T08:48:46.598Z,64.10
2022-12-15T08:51:14.363Z,60.97
2022-12-15T08:53:41.732Z,61.72
2022-12-15T08:56:13.020Z,58.85
2022-12-15T08:58:40.763Z,58.50
2022-12-15T09:01:12.284Z,54.88
2022-12-15T09:03:42.010Z,54.10
2022-12-15T09:06:14.967Z,54.28
2022-12-15T09:08:42.680Z,54.25
2022-12-15T09:11:10.017Z,59.47
2022-12-15T09:13:37.996Z,56.63
2022-12-15T09:16:10.302Z,52.17
2022-12-15T09:18:38.331Z,56.22
2022-12-15T09:21:07.907Z,53.13
2022-12-15T09:23:36.187Z,54.05
2022-12-15T09:26:06.217Z,55.03
2022-12-15T09:28:33.601Z,59.45
2022-12-15T09:31:06.275Z,58.22
2022-12-15T09:33:34.309Z,58.05
2022-12-15T09:36:02.008Z,57.25
2022-12-15T09:38:29.466Z,57.20
2022-12-15T09:40:57.161Z,65.10
2022-12-15T09:43:35.772Z,64.78
2022-12-15T09:46:17.615Z,62.50
2022-12-15T09:48:46.576Z,60.97
2022-12-15T09:51:18.138Z,59.75
2022-12-15T09:53:55.586Z,67.15
2022-12-15T09:56:32.847Z,68.18
2022-12-15T09:59:10.787Z,63.13
2022-12-15T10:01:49.476Z,59.70
2022-12-15T10:04:37.979Z,61.88
2022-12-15T10:07:15.800Z,63.47
2022-12-15T10:09:43.680Z,65.60
2022-12-15T10:12:19.117Z,64.50
2022-12-15T10:15:03.292Z,71.32
2022-12-15T10:17:54.599Z,68.25
2022-12-15T10:20:26.550Z,67.75
2022-12-15T10:22:56.791Z,71.95
2022-12-15T10:25:30.379Z,69.30
2022-12-15T10:28:37.902Z,67.57
2022-12-15T10:31:16.138Z,70.28
2022-12-15T10:33:50.317Z,64.05
2022-12-15T10:36:17.565Z,68.97
2022-12-15T10:41:35.228Z,70.65
2022-12-15T10:44:02.882Z,70.85
2022-12-15T10:46:32.020Z,74.53
2022-12-15T10:49:19.186Z,67.22
2022-12-15T10:51:50.466Z,71.75
2022-12-15T10:54:19.296Z,68.85
2022-12-15T10:56:56.036Z,74.60
2022-12-15T10:59:39.040Z,75.60
2022-12-15T11:02:25.280Z,76.40
2022-12-15T11:05:16.047Z,74.95
2022-12-15T11:07:46.239Z,75.78
2022-12-15T11:10:50.035Z,79.68
2022-12-15T11:13:20.553Z,77.07
2022-12-15T11:15:51.389Z,74.03
2022-12-15T11:18:36.097Z,77.60
2022-12-15T11:21:06.245Z,77.80
2022-12-15T11:24:01.756Z,81.35
2022-12-15T11:26:49.175Z,80.38
2022-12-15T11:29:23.444Z,77.03
2022-12-15T11:31:52.729Z,81.47
2022-12-15T11:34:25.125Z,90.45
2022-12-15T11:37:09.289Z,86.72
2022-12-15T11:39:56.257Z,93.00
2022-12-15T11:43:02.895Z,87.60
2022-12-15T11:45:57.366Z,101.55
2022-12-15T11:48:51.999Z,98.50
2022-12-15T11:51:52.345Z,103.18
2022-12-15T11:54:46.942Z,103.25
2022-12-15T11:57:56.051Z,110.10
2022-12-15T12:00:23.945Z,108.85
2022-12-15T12:03:02.167Z,108.05
2022-12-15T12:05:55.655Z,109.18
2022-12-15T12:08:31.495Z,111.10
2022-12-15T12:11:05.521Z,116.93
2022-12-15T12:14:12.418Z,118.22
2022-12-15T12:16:50.575Z,116.22
2022-12-15T12:19:27.209Z,119.10
2022-12-15T12:22:04.195Z,118.47
2022-12-15T12:24:39.478Z,113.38
2022-12-15T12:27:34.151Z,117.10
2022-12-15T12:30:10.120Z,93.63
2022-12-15T12:33:03.194Z,120.75
2022-12-15T12:35:44.675Z,117.05
2022-12-15T12:38:13.307Z,121.47
2022-12-15T12:40:41.417Z,127.90
2022-12-15T12:43:14.232Z,119.10
2022-12-15T12:45:57.501Z,111.75
2022-12-15T12:48:37.965Z,79.05
2022-12-15T12:51:27.833Z,111.88
2022-12-15T12:53:56.060Z,113.57
2022-12-15T12:56:31.771Z,104.65
2022-12-15T12:58:59.302Z,112.03
2022-12-15T13:01:27.135Z,118.90
2022-12-15T13:04:34.249Z,116.68
2022-12-15T13:07:08.906Z,113.72
2022-12-15T13:09:41.741Z,110.82
2022-12-15T13:15:39.312Z,113.82
2022-12-15T13:18:08.647Z,113.90
2022-12-15T13:20:37.969Z,118.20
2022-12-15T13:23:22.235Z,118.22
2022-12-15T13:26:05.103Z,128.85
2022-12-15T13:28:43.329Z,120.82
2022-12-15T13:31:19.032Z,125.88
2022-12-15T13:34:12.613Z,123.35
2022-12-15T13:36:40.853Z,125.78
2022-12-15T13:39:23.662Z,116.97
2022-12-15T13:42:31.500Z,123.63
2022-12-15T13:44:44.238Z,129.75
2022-12-15T13:47:22.643Z,94.38
2022-12-15T13:50:03.758Z,112.22
2022-12-15T13:55:37.433Z,115.25
2022-12-15T13:58:16.769Z,123.00
2022-12-15T14:00:54.618Z,121.35
2022-12-15T14:03:22.553Z,118.13
2022-12-15T14:05:53.449Z,132.30
2022-12-15T14:08:23.490Z,129.80
2022-12-15T14:10:54.983Z,129.30
2022-12-15T14:13:30.365Z,143.07
2022-12-15T14:16:03.277Z,144.35
2022-12-15T14:18:34.772Z,141.25
2022-12-15T14:21:05.935Z,141.30
2022-12-15T14:23:52.481Z,124.70
2022-12-15T14:26:31.778Z,124.38
2022-12-15T14:29:02.729Z,128.32
2022-12-15T14:31:31.010Z,146.02
2022-12-15T14:34:06.467Z,140.85
2022-12-15T14:36:33.997Z,139.77
2022-12-15T14:39:05.629Z,132.93
2022-12-15T14:41:37.833Z,122.45
2022-12-15T14:44:32.023Z,123.57
2022-12-15T14:47:00.248Z,152.52
2022-12-15T14:49:31.198Z,139.55
2022-12-15T14:52:03.318Z,149.85
2022-12-15T14:54:49.736Z,141.68
2022-12-15T14:57:23.837Z,148.95
2022-12-15T14:59:53.293Z,133.10
2022-12-15T15:02:27.011Z,145.80
2022-12-15T15:03:04.066Z,67.22
2022-12-15T15:03:07.366Z,115.22
2022-12-15T15:05:05.089Z,132.77
2022-12-15T15:07:33.738Z,143.63
2022-12-15T15:10:03.044Z,134.60
2022-12-15T15:12:47.641Z,124.65
2022-12-15T15:15:19.921Z,129.13
2022-12-15T15:17:51.123Z,143.50
2022-12-15T15:20:30.420Z,141.10
2022-12-15T15:23:11.133Z,136.55
2022-12-15T15:25:41.640Z,153.40
2022-12-15T15:28:28.111Z,143.13
2022-12-15T15:30:58.064Z,134.65
2022-12-15T15:33:26.435Z,125.63
2022-12-15T15:35:56.665Z,137.40
2022-12-15T15:38:27.469Z,122.72
2022-12-15T15:40:57.159Z,135.00
2022-12-15T15:43:25.977Z,122.82
2022-12-15T15:46:02.263Z,128.45
2022-12-15T15:48:35.171Z,130.05
2022-12-15T15:51:04.790Z,127.53
2022-12-15T15:53:34.324Z,116.78
2022-12-15T15:56:03.776Z,123.70
2022-12-15T15:58:31.594Z,133.90
2022-12-15T16:00:58.995Z,124.18
2022-12-15T16:03:26.686Z,119.88
2022-12-15T16:05:53.860Z,122.25
2022-12-15T16:08:31.757Z,127.63
2022-12-15T16:10:59.508Z,121.47
2022-12-15T16:13:27.244Z,123.55
2022-12-15T16:15:54.984Z,128.27
2022-12-15T16:18:22.333Z,129.93
2022-12-15T16:20:51.672Z,132.07
2022-12-15T16:23:24.131Z,123.57
2022-12-15T16:25:53.890Z,124.65
2022-12-15T16:28:23.546Z,129.68
2022-12-15T16:30:51.358Z,139.55
2022-12-15T16:33:19.161Z,129.68
2022-12-15T16:35:48.518Z,140.25
2022-12-15T16:38:32.011Z,138.10
2022-12-15T16:41:06.872Z,141.70
2022-12-15T16:43:39.165Z,133.02
2022-12-15T16:46:12.758Z,134.20
2022-12-15T16:48:40.710Z,120.07
2022-12-15T16:51:10.867Z,123.65
2022-12-15T16:53:41.182Z,118.18
2022-12-15T16:56:13.196Z,115.45
2022-12-15T16:58:40.495Z,118.35
2022-12-15T17:01:09.605Z,115.30
2022-12-15T17:03:36.898Z,109.20
2022-12-15T17:06:07.758Z,108.25
2022-12-15T17:08:52.467Z,119.28
2022-12-15T17:11:24.688Z,122.72
2022-12-15T17:13:53.907Z,126.07
2022-12-15T17:16:23.580Z,132.40
2022-12-15T17:18:51.640Z,137.32
2022-12-15T17:21:23.941Z,132.15
2022-12-15T17:23:54.264Z,128.02
2022-12-15T17:26:31.649Z,121.32
2022-12-15T17:29:06.280Z,120.63
2022-12-15T17:31:35.927Z,124.40
2022-12-15T17:34:28.066Z,122.55
2022-12-15T17:37:00.784Z,119.85
2022-12-15T17:39:29.514Z,123.22
2022-12-15T17:42:01.523Z,122.78
2022-12-15T17:44:36.780Z,118.32
2022-12-15T17:47:07.725Z,122.32
2022-12-15T17:49:38.376Z,120.05
2022-12-15T17:52:28.053Z,125.50
2022-12-15T17:54:55.896Z,112.97
2022-12-15T17:57:23.242Z,118.13
2022-12-15T17:59:50.331Z,122.22
2022-12-15T18:02:17.695Z,122.10
2022-12-15T18:04:45.148Z,125.28
2022-12-15T18:07:28.081Z,119.53
2022-12-15T18:09:55.461Z,113.97
2022-12-15T18:12:25.728Z,122.60
2022-12-15T18:14:54.785Z,120.38
2022-12-15T18:17:22.798Z,116.97
2022-12-15T18:19:50.555Z,113.07
2022-12-15T18:22:22.753Z,105.72
2022-12-15T18:24:53.191Z,113.75
2022-12-15T18:27:24.603Z,101.32
2022-12-15T18:29:52.829Z,110.88
2022-12-15T18:32:23.624Z,112.95
2022-12-15T18:34:51.296Z,103.25
2022-12-15T18:37:21.219Z,115.85
2022-12-15T18:39:50.610Z,111.50
2022-12-15T18:42:20.446Z,109.13
2022-12-15T18:44:50.352Z,116.97
2022-12-15T18:47:21.119Z,110.68
2022-12-15T18:49:48.352Z,118.18
2022-12-15T18:52:22.703Z,116.53
2022-12-15T18:57:36.951Z,118.93
2022-12-15T19:00:14.948Z,119.95
2022-12-15T19:02:43.087Z,119.43
2022-12-15T19:05:27.938Z,124.80
2022-12-15T19:10:27.264Z,119.38
2022-12-15T19:12:58.594Z,118.65
2022-12-15T19:15:26.647Z,117.30
2022-12-15T19:18:13.695Z,115.20
2022-12-15T19:21:01.329Z,113.93
2022-12-15T19:23:28.887Z,112.93
2022-12-15T19:25:56.427Z,118.90
2022-12-15T19:28:24.469Z,115.25
2022-12-15T19:30:52.392Z,109.35
2022-12-15T19:33:20.368Z,110.38
2022-12-15T19:35:51.244Z,113.78
2022-12-15T19:38:24.878Z,109.70
2022-12-15T19:40:53.807Z,91.77
2022-12-15T19:43:23.631Z,112.60
2022-12-15T19:45:52.205Z,110.88
2022-12-15T19:48:23.343Z,108.85
2022-12-15T19:50:52.512Z,107.30
2022-12-15T19:53:25.824Z,109.82
2022-12-15T19:55:56.044Z,113.40
2022-12-15T19:58:34.497Z,112.68
2022-12-15T20:01:10.358Z,119.28
2022-12-15T20:03:38.761Z,110.55
2022-12-15T20:06:17.173Z,114.85
2022-12-15T20:08:47.524Z,108.60
2022-12-15T20:11:19.554Z,120.60
2022-12-15T20:13:48.383Z,118.15
2022-12-15T20:16:19.226Z,110.80
2022-12-15T20:18:49.074Z,104.53
2022-12-15T20:21:22.236Z,112.47
2022-12-15T20:23:54.028Z,110.28
2022-12-15T20:26:24.507Z,111.20
2022-12-15T20:28:53.098Z,129.82
2022-12-15T20:31:22.934Z,117.38
2022-12-15T20:33:51.245Z,123.90
2022-12-15T20:36:26.645Z,127.38
2022-12-15T20:38:54.736Z,129.73
2022-12-15T20:41:26.259Z,126.60
2022-12-15T20:43:55.234Z,120.72
2022-12-15T20:46:25.298Z,128.65
2022-12-15T20:48:54.633Z,127.68
2022-12-15T20:51:30.120Z,130.75
2022-12-15T20:54:00.688Z,122.32
2022-12-15T20:56:29.023Z,117.25
2022-12-15T20:58:58.200Z,121.43
2022-12-15T21:01:27.195Z,118.25
2022-12-15T21:03:56.891Z,124.70
2022-12-15T21:06:25.535Z,131.90
2022-12-15T21:08:52.796Z,116.55
2022-12-15T21:11:21.193Z,124.95
2022-12-15T21:13:49.716Z,117.65
2022-12-15T21:16:19.879Z,122.18
2022-12-15T21:21:38.328Z,118.60
2022-12-15T21:24:15.773Z,113.63
2022-12-15T21:26:43.826Z,114.88
2022-12-15T21:29:16.628Z,115.43
2022-12-15T21:31:44.634Z,116.20
2022-12-15T21:34:12.783Z,109.40
2022-12-15T21:36:42.700Z,112.05
2022-12-15T21:39:18.678Z,110.57
2022-12-15T21:41:45.955Z,112.50
2022-12-15T21:44:14.313Z,113.68
2022-12-15T21:46:42.097Z,117.90
2022-12-15T21:49:14.667Z,121.20
2022-12-15T21:51:47.203Z,118.03
2022-12-15T21:54:16.162Z,124.90
2022-12-15T21:56:43.498Z,123.18
2022-12-15T21:59:14.134Z,124.47
2022-12-15T22:01:41.401Z,126.82
2022-12-15T22:04:15.769Z,121.53
2022-12-15T22:06:47.279Z,122.20
2022-12-15T22:11:48.871Z,123.07
2022-12-15T22:14:19.495Z,123.50
2022-12-15T22:16:46.587Z,126.80
2022-12-15T22:19:13.880Z,123.85
2022-12-15T22:21:42.412Z,127.93
2022-12-15T22:24:10.508Z,126.80
2022-12-15T22:26:39.231Z,121.60
2022-12-15T22:29:15.676Z,123.20
2022-12-15T22:31:43.135Z,124.35
2022-12-15T22:34:14.030Z,117.90
2022-12-15T22:36:41.860Z,122.20
2022-12-15T22:39:11.182Z,119.80
2022-12-15T22:41:45.128Z,116.05
2022-12-15T22:44:33.188Z,117.90
2022-12-15T22:47:02.421Z,120.80
2022-12-15T22:49:34.680Z,115.82
2022-12-15T22:52:02.041Z,117.55
2022-12-15T22:54:32.000Z,115.97
2022-12-15T22:57:05.435Z,125.10
2022-12-15T22:59:35.937Z,120.15
2022-12-15T23:02:03.649Z,114.65
2022-12-15T23:04:32.256Z,116.43
2022-12-15T23:07:01.787Z,108.38
2022-12-15T23:09:29.185Z,113.63
2022-12-15T23:11:56.428Z,110.78
2022-12-15T23:14:43.388Z,113.97
2022-12-15T23:17:11.579Z,113.32
2022-12-15T23:19:44.229Z,111.28
2022-12-15T23:22:11.504Z,111.35
2022-12-15T23:24:39.107Z,111.03
2022-12-15T23:27:11.334Z,113.60
2022-12-15T23:29:38.597Z,112.93
2022-12-15T23:32:06.128Z,115.22
2022-12-15T23:34:33.427Z,118.88
2022-12-15T23:37:00.947Z,120.60
2022-12-15T23:39:28.339Z,116.72
2022-12-15T23:41:55.515Z,122.20
2022-12-15T23:44:22.513Z,122.28
2022-12-15T23:46:49.733Z,126.25
2022-12-15T23:49:17.261Z,121.07
2022-12-15T23:51:44.478Z,128.77
2022-12-15T23:54:11.472Z,121.03
2022-12-15T23:56:40.176Z,118.35
2022-12-15T23:59:07.789Z,116.88
